AYE weather

CLOSED Ft Devens Moore Army Air Field
Massachusetts, United States

Public forecast

Using degrees Fahrenheit for public forecast. Weather courtesy of forecast.io.

METAR (pilot weather report)

Closest report is Fitchburg Municipal Airport, 7.0 nm (12.9 km) W. Retrieved 2019/07/20 03:52 UTC (23 minutes ago):

KFIT 200352Z AUTO 13003KT 10SM CLR 28/24 A2979 RMK AO2 SLP086 T02780239

TAF (pilot weather forecast)

Forecast is more than 12 hours old.

Closest forecast is Laurence G Hanscom Field, 15.1 nm (28.0 km) ESE. Retrieved 2019/07/19 00:33 UTC (1 day ago):

TAF KBED 192328Z 2000/2024 23004KT P6SM FEW060 FM200500 25003KT P6SM FEW060 FM201100 26003KT P6SM FEW100 FM201400 27008KT P6SM FEW060 FM202100 24008KT P6SM FEW050